Time;durP1;ratioP1;P1;durP2;ratioP2;P2;SDS_P1;SDS_P2;PMS_P1;PMS_P2;Temp;Humidity;BMP_temperature;BMP_pressure;BME280_temperature;BME280_humidity;BME280_pressure;Samples;Min_cycle;Max_cycle;Signal;HPM_P1;HPM_P2
2024/04/09 00:01:31;;;;;;;6.72;5.88;;;19.40;81.00;;;;;;4501014;26;20017;-47
2024/04/09 00:04:12;;;;;;;7.72;6.88;;;19.50;81.30;;;;;;4500471;26;20013;-49
2024/04/09 00:06:55;;;;;;;7.68;6.30;;;19.40;81.30;;;;;;4526636;26;20012;-41
2024/04/09 00:09:42;;;;;;;9.18;6.47;;;19.50;81.50;;;;;;4530783;26;20114;-41
2024/04/09 00:12:25;;;;;;;7.80;6.22;;;19.40;81.60;;;;;;4501525;26;20010;-41
2024/04/09 00:15:08;;;;;;;7.00;6.30;;;19.40;81.70;;;;;;4501885;26;20016;-40
2024/04/09 00:17:55;;;;;;;8.20;6.05;;;19.40;81.80;;;;;;4531118;26;20074;-41
2024/04/09 00:20:35;;;;;;;8.68;6.65;;;19.40;81.90;;;;;;4543378;25;20012;-41
2024/04/09 00:23:18;;;;;;;9.00;6.68;;;19.40;81.90;;;;;;4561736;25;20046;-41
2024/04/09 00:25:59;;;;;;;8.98;6.25;;;19.40;81.90;;;;;;4545158;25;20017;-41
2024/04/09 00:28:41;;;;;;;8.15;7.32;;;19.40;81.90;;;;;;4530994;26;20017;-41
2024/04/09 00:31:24;;;;;;;7.28;6.57;;;19.40;81.90;;;;;;4548019;25;20016;-41
2024/04/09 00:34:08;;;;;;;10.15;6.65;;;19.40;82.10;;;;;;4560853;25;20077;-41
2024/04/09 00:36:50;;;;;;;9.52;7.13;;;19.40;82.20;;;;;;4531061;26;20074;-41
2024/04/09 00:39:34;;;;;;;8.82;6.72;;;19.40;82.30;;;;;;4531186;26;20079;-41
2024/04/09 00:42:14;;;;;;;9.63;7.60;;;19.40;82.40;;;;;;4530747;26;20597;-40
2024/04/09 00:44:57;;;;;;;7.97;7.18;;;19.40;82.40;;;;;;4532616;25;20012;-40
2024/04/09 00:47:40;;;;;;;10.82;7.43;;;19.40;82.40;;;;;;4529668;26;20038;-41
2024/04/09 00:50:25;;;;;;;9.13;7.35;;;19.40;82.40;;;;;;4534746;25;20017;-42
2024/04/09 00:53:07;;;;;;;9.82;7.72;;;19.40;82.40;;;;;;4561337;25;20009;-41
2024/04/09 00:55:52;;;;;;;9.48;8.57;;;19.40;82.30;;;;;;4547677;25;20013;-41
2024/04/09 00:58:34;;;;;;;9.30;7.85;;;19.40;82.40;;;;;;4529236;26;20047;-41
2024/04/09 01:01:19;;;;;;;10.07;8.68;;;19.40;82.50;;;;;;4531106;26;20017;-40
2024/04/09 01:04:02;;;;;;;10.35;8.02;;;19.40;82.70;;;;;;4530188;26;20443;-41
2024/04/09 01:06:45;;;;;;;11.10;8.68;;;19.40;82.90;;;;;;4530658;26;20012;-41
2024/04/09 01:09:26;;;;;;;10.15;8.05;;;19.30;82.70;;;;;;4531248;26;20016;-41
2024/04/09 01:12:09;;;;;;;11.75;8.13;;;19.40;82.90;;;;;;4530334;26;20043;-40
2024/04/09 01:14:49;;;;;;;13.75;8.98;;;19.30;82.80;;;;;;4522385;26;20017;-40
2024/04/09 01:17:32;;;;;;;13.45;8.48;;;19.30;83.00;;;;;;4499653;26;20082;-40
2024/04/09 01:20:16;;;;;;;10.65;8.32;;;19.40;83.20;;;;;;4500082;26;20013;-40
2024/04/09 01:23:01;;;;;;;11.57;7.90;;;19.40;83.20;;;;;;4499745;26;20087;-40
2024/04/09 01:25:42;;;;;;;11.63;8.93;;;19.40;83.30;;;;;;4521988;26;20437;-41
2024/04/09 01:28:25;;;;;;;11.48;9.18;;;19.40;83.30;;;;;;4530021;26;20009;-41
2024/04/09 01:31:09;;;;;;;11.18;8.68;;;19.40;83.40;;;;;;4529363;26;20009;-40
2024/04/09 01:33:53;;;;;;;11.85;8.88;;;19.40;83.60;;;;;;4532193;26;20017;-41
2024/04/09 01:36:34;;;;;;;9.63;8.63;;;19.40;83.60;;;;;;4510009;26;20102;-41
2024/04/09 01:39:19;;;;;;;10.15;8.95;;;19.40;83.60;;;;;;4522508;26;20006;-40
2024/04/09 01:42:00;;;;;;;11.00;8.85;;;19.40;83.70;;;;;;4504843;26;20014;-40
2024/04/09 01:44:43;;;;;;;11.80;8.05;;;19.40;83.70;;;;;;4502573;26;20087;-40
2024/04/09 01:47:23;;;;;;;11.18;8.32;;;19.40;84.60;;;;;;4502494;26;20014;-41
2024/04/09 01:50:10;;;;;;;16.20;9.13;;;19.40;83.70;;;;;;4515655;26;20447;-40
2024/04/09 01:52:51;;;;;;;10.45;8.50;;;19.30;83.60;;;;;;4532058;26;20009;-41
2024/04/09 01:55:37;;;;;;;11.07;8.20;;;19.40;83.80;;;;;;4517633;26;20009;-40
2024/04/09 01:58:18;;;;;;;11.80;9.35;;;19.40;83.90;;;;;;4501985;26;20025;-40
2024/04/09 02:01:09;;;;;;;14.37;9.47;;;19.40;83.90;;;;;;4502518;26;20043;-41
2024/04/09 02:03:49;;;;;;;10.32;8.75;;;19.40;83.90;;;;;;4502666;26;20039;-40
2024/04/09 02:06:33;;;;;;;10.05;8.52;;;19.40;83.90;;;;;;4502335;26;20047;-40
2024/04/09 02:09:13;;;;;;;13.68;9.70;;;19.40;83.90;;;;;;4501988;26;20407;-47
2024/04/09 02:11:58;;;;;;;11.57;9.13;;;19.40;83.90;;;;;;4479971;26;20079;-47
2024/04/09 02:14:38;;;;;;;10.35;9.23;;;19.40;84.00;;;;;;4506668;26;20348;-48
2024/04/09 02:17:21;;;;;;;10.25;9.18;;;19.40;84.00;;;;;;4532556;26;20017;-50
2024/04/09 02:20:03;;;;;;;9.68;8.52;;;19.40;84.00;;;;;;4530625;26;20017;-49
2024/04/09 02:22:47;;;;;;;14.52;10.00;;;19.40;83.90;;;;;;4531880;26;20017;-50
2024/04/09 02:25:31;;;;;;;12.65;9.10;;;19.30;83.90;;;;;;4532091;26;20040;-47
2024/04/09 02:28:14;;;;;;;12.95;9.32;;;19.40;83.90;;;;;;4532185;26;20070;-52
2024/04/09 02:30:57;;;;;;;12.60;8.95;;;19.40;83.90;;;;;;4502014;26;20448;-48
2024/04/09 02:33:37;;;;;;;14.35;10.43;;;19.30;83.70;;;;;;4501473;26;20018;-49
2024/04/09 02:36:20;;;;;;;14.38;9.70;;;19.40;83.90;;;;;;4502161;26;20083;-48
2024/04/09 02:39:00;;;;;;;11.93;9.73;;;19.40;84.90;;;;;;4501899;26;20013;-48
2024/04/09 02:41:43;;;;;;;10.45;9.30;;;19.30;84.00;;;;;;4501410;26;20042;-50
2024/04/09 02:44:29;;;;;;;14.65;10.02;;;19.30;84.00;;;;;;4496646;26;20013;-49
2024/04/09 02:47:12;;;;;;;15.13;9.70;;;19.30;84.10;;;;;;4510027;26;20009;-50
2024/04/09 02:49:54;;;;;;;11.20;9.73;;;19.30;84.00;;;;;;4509208;26;20013;-49
2024/04/09 02:52:49;;;;;;;11.77;9.57;;;19.40;84.20;;;;;;4479570;26;20014;-50
2024/04/09 02:55:29;;;;;;;13.00;10.68;;;19.30;84.10;;;;;;4502078;26;20010;-48
2024/04/09 02:58:12;;;;;;;10.57;9.05;;;19.30;84.10;;;;;;4508937;26;20013;-47
2024/04/09 03:00:55;;;;;;;14.90;10.63;;;19.30;84.20;;;;;;4531470;26;20013;-51
2024/04/09 03:03:39;;;;;;;17.05;10.13;;;19.30;84.20;;;;;;4509097;26;20025;-47
2024/04/09 03:06:19;;;;;;;12.75;9.82;;;19.30;84.30;;;;;;4531363;26;20013;-47
2024/04/09 03:09:03;;;;;;;14.77;11.02;;;19.30;84.30;;;;;;4518646;26;20052;-47
2024/04/09 03:11:43;;;;;;;16.92;10.75;;;19.30;84.30;;;;;;4501916;26;20583;-48
2024/04/09 03:14:26;;;;;;;14.48;10.68;;;19.30;84.30;;;;;;4502447;26;20511;-48
2024/04/09 03:17:08;;;;;;;12.52;10.25;;;19.30;84.30;;;;;;4532592;26;20074;-47
2024/04/09 03:19:51;;;;;;;11.65;10.18;;;19.30;84.30;;;;;;4530672;26;20017;-47
2024/04/09 03:22:31;;;;;;;10.45;8.73;;;19.30;84.40;;;;;;4531723;26;20075;-47
2024/04/09 03:25:14;;;;;;;10.45;9.30;;;19.30;84.40;;;;;;4532185;26;20016;-40
2024/04/09 03:27:54;;;;;;;13.20;9.50;;;19.30;84.50;;;;;;4530183;26;20013;-41
2024/04/09 03:30:37;;;;;;;11.20;9.27;;;19.30;84.50;;;;;;4531074;26;20850;-41
2024/04/09 03:33:20;;;;;;;11.70;9.70;;;19.30;84.50;;;;;;4531212;26;20055;-41
2024/04/09 03:36:05;;;;;;;10.63;8.63;;;19.30;84.60;;;;;;4530783;26;20013;-40
2024/04/09 03:38:48;;;;;;;13.18;8.77;;;19.30;84.60;;;;;;4555198;25;20122;-40
2024/04/09 03:41:31;;;;;;;10.02;9.10;;;19.30;84.60;;;;;;4562115;25;20359;-43
2024/04/09 03:44:14;;;;;;;10.43;8.77;;;19.30;84.60;;;;;;4560459;25;20050;-41
2024/04/09 03:46:56;;;;;;;12.38;8.20;;;19.30;84.60;;;;;;4562391;25;20013;-41
2024/04/09 03:49:41;;;;;;;;;;;19.30;84.60;;;;;;4532921;26;20013;-40
2024/04/09 03:52:22;;;;;;;12.05;8.70;;;19.30;84.60;;;;;;4532057;26;19935;-40
2024/04/09 03:55:05;;;;;;;11.48;8.75;;;19.30;84.60;;;;;;4529445;26;20074;-41
2024/04/09 03:57:45;;;;;;;12.27;8.38;;;19.30;84.60;;;;;;4531675;26;20012;-40
2024/04/09 04:00:28;;;;;;;10.52;8.63;;;19.30;84.70;;;;;;4532062;26;20082;-41
2024/04/09 04:03:08;;;;;;;10.88;8.23;;;19.20;84.80;;;;;;4530039;26;20009;-41
2024/04/09 04:05:58;;;;;;;11.25;8.73;;;19.20;84.90;;;;;;4556159;25;20008;-41
2024/04/09 04:08:39;;;;;;;13.35;9.15;;;19.20;84.90;;;;;;4541785;25;20013;-41
2024/04/09 04:11:21;;;;;;;10.68;8.32;;;19.20;84.90;;;;;;4531324;26;20016;-41
2024/04/09 04:14:02;;;;;;;12.73;8.20;;;19.30;85.80;;;;;;4531201;25;20051;-40
2024/04/09 04:16:45;;;;;;;10.50;7.63;;;19.30;85.00;;;;;;4531237;26;20012;-40
2024/04/09 04:19:25;;;;;;;7.80;7.00;;;19.30;85.00;;;;;;4533691;25;20015;-40
2024/04/09 04:22:10;;;;;;;10.77;7.78;;;19.20;85.00;;;;;;4531033;26;20013;-40
2024/04/09 04:24:50;;;;;;;8.68;6.30;;;19.30;85.10;;;;;;4531427;26;20030;-40
2024/04/09 04:27:33;;;;;;;9.40;6.38;;;19.30;85.10;;;;;;4536660;25;20501;-40
2024/04/09 04:30:14;;;;;;;10.85;6.55;;;19.20;85.00;;;;;;4561145;25;20014;-40
2024/04/09 04:32:57;;;;;;;8.33;6.50;;;19.20;85.00;;;;;;4561595;25;20017;-40
2024/04/09 04:35:37;;;;;;;9.73;7.40;;;19.20;85.00;;;;;;4561334;25;20077;-40
2024/04/09 04:38:23;;;;;;;9.90;6.63;;;19.30;85.00;;;;;;4559572;25;20016;-40
2024/04/09 04:41:06;;;;;;;7.70;6.07;;;19.20;84.90;;;;;;4561029;25;20020;-40
2024/04/09 04:43:47;;;;;;;10.30;5.40;;;19.20;84.90;;;;;;4561416;25;20012;-40
2024/04/09 04:46:29;;;;;;;9.82;6.10;;;19.20;84.90;;;;;;4530424;26;20008;-41
2024/04/09 04:49:12;;;;;;;8.40;6.00;;;19.20;84.90;;;;;;4531180;26;20047;-41
2024/04/09 04:51:52;;;;;;;8.43;5.90;;;19.20;84.80;;;;;;4530880;26;20043;-41
2024/04/09 04:54:37;;;;;;;6.45;5.65;;;19.20;84.80;;;;;;4529342;26;20038;-41
2024/04/09 04:57:22;;;;;;;5.45;4.95;;;19.20;84.70;;;;;;4530711;26;20489;-41
2024/04/09 05:00:09;;;;;;;4.93;4.07;;;19.20;84.70;;;;;;4532997;25;20013;-41
2024/04/09 05:02:49;;;;;;;7.85;3.60;;;19.20;84.70;;;;;;4530134;26;20070;-46
2024/04/09 05:05:32;;;;;;;5.45;4.50;;;19.20;85.00;;;;;;4558618;25;20385;-47
2024/04/09 05:08:12;;;;;;;3.97;3.53;;;19.30;86.10;;;;;;4555157;25;20069;-49
2024/04/09 05:10:57;;;;;;;4.82;4.05;;;19.20;84.90;;;;;;4554234;25;20082;-46
2024/04/09 05:13:37;;;;;;;8.57;4.10;;;19.20;84.80;;;;;;4541651;25;20013;-46
2024/04/09 05:16:20;;;;;;;3.92;3.55;;;19.20;84.70;;;;;;4533148;25;20071;-47
2024/04/09 05:19:02;;;;;;;6.43;3.90;;;19.30;84.70;;;;;;4502840;26;19999;-48
2024/04/09 05:21:45;;;;;;;4.65;4.20;;;19.20;84.60;;;;;;4529524;26;20078;-47
2024/04/09 05:24:25;;;;;;;5.30;4.78;;;19.20;84.50;;;;;;4512806;26;20021;-51
2024/04/09 05:27:11;;;;;;;5.15;4.45;;;19.20;84.40;;;;;;4498599;26;20452;-46
2024/04/09 05:29:52;;;;;;;4.65;4.22;;;19.20;84.30;;;;;;4514176;26;20013;-46
2024/04/09 05:32:37;;;;;;;5.35;4.95;;;19.20;85.20;;;;;;4511595;26;20337;-46
2024/04/09 05:35:19;;;;;;;5.32;4.88;;;19.20;84.30;;;;;;4499568;26;20441;-46
2024/04/09 05:38:02;;;;;;;6.05;4.35;;;19.20;84.30;;;;;;4497183;26;20354;-47
2024/04/09 05:40:43;;;;;;;5.85;4.63;;;19.20;84.30;;;;;;4526916;26;20013;-47
2024/04/09 05:43:28;;;;;;;6.22;4.72;;;19.20;84.20;;;;;;4529987;26;20452;-47
2024/04/09 05:46:08;;;;;;;4.38;4.00;;;19.20;84.20;;;;;;4497421;26;20014;-47
2024/04/09 05:48:51;;;;;;;5.05;4.55;;;19.20;84.10;;;;;;4499085;26;20022;-47
2024/04/09 05:51:31;;;;;;;5.10;4.47;;;19.20;84.10;;;;;;4499537;26;20017;-47
2024/04/09 05:54:14;;;;;;;5.20;3.90;;;19.20;84.00;;;;;;4495880;26;20014;-40
2024/04/09 05:56:54;;;;;;;4.45;4.00;;;19.20;84.00;;;;;;4499145;26;20010;-40
2024/04/09 05:59:40;;;;;;;3.80;3.50;;;19.10;83.90;;;;;;4509273;26;20082;-40
2024/04/09 06:02:20;;;;;;;7.90;4.15;;;19.20;85.20;;;;;;4527726;26;20074;-40
2024/04/09 06:05:03;;;;;;;4.45;3.60;;;19.10;87.40;;;;;;4529004;26;20017;-41
2024/04/09 06:07:44;;;;;;;5.25;3.35;;;19.20;86.70;;;;;;4528919;26;20078;-40
2024/04/09 06:10:27;;;;;;;3.38;2.97;;;19.10;86.80;;;;;;4528159;26;20074;-40
2024/04/09 06:13:07;;;;;;;6.05;2.88;;;19.10;86.60;;;;;;4528696;26;20444;-40
2024/04/09 06:15:52;;;;;;;5.70;3.13;;;19.20;86.30;;;;;;4528850;26;20074;-40
2024/04/09 06:18:33;;;;;;;4.65;2.55;;;19.10;85.90;;;;;;4511220;26;20017;-40
2024/04/09 06:21:16;;;;;;;3.90;1.77;;;19.10;85.60;;;;;;4501841;26;20080;-40
2024/04/09 06:23:56;;;;;;;3.92;1.38;;;19.10;85.40;;;;;;4502003;26;20345;-40
2024/04/09 06:26:40;;;;;;;6.95;1.60;;;19.10;85.10;;;;;;4527569;26;20013;-39
2024/04/09 06:29:21;;;;;;;2.58;1.00;;;19.10;84.80;;;;;;4528636;26;20013;-40
2024/04/09 06:32:07;;;;;;;6.13;1.67;;;19.10;84.50;;;;;;4501418;26;20083;-40
2024/04/09 06:34:49;;;;;;;5.05;1.55;;;19.10;84.30;;;;;;4479529;26;20017;-40
2024/04/09 06:37:34;;;;;;;3.42;1.10;;;19.00;84.20;;;;;;4506110;26;20017;-40
2024/04/09 06:40:14;;;;;;;3.95;1.40;;;19.00;84.10;;;;;;4515100;26;20037;-40
2024/04/09 06:42:57;;;;;;;3.75;1.42;;;19.00;83.80;;;;;;4501674;26;20033;-40
2024/04/09 06:45:38;;;;;;;5.30;1.65;;;19.00;83.60;;;;;;4501326;26;20013;-46
2024/04/09 06:48:23;;;;;;;6.78;1.60;;;19.00;83.50;;;;;;4501565;26;20082;-47
2024/04/09 06:51:05;;;;;;;4.40;1.70;;;19.00;83.30;;;;;;4509575;26;20137;-48
2024/04/09 06:53:47;;;;;;;6.00;1.77;;;19.00;83.20;;;;;;4505638;26;20333;-47
2024/04/09 06:56:28;;;;;;;4.18;1.65;;;19.00;83.10;;;;;;4496499;26;20082;-50
2024/04/09 06:59:11;;;;;;;3.37;1.77;;;19.00;83.80;;;;;;4520322;26;20146;-48
2024/04/09 07:01:51;;;;;;;3.33;2.03;;;19.00;82.90;;;;;;4515906;26;20249;-48
2024/04/09 07:04:36;;;;;;;6.38;1.77;;;19.00;82.80;;;;;;4513477;26;20340;-50
2024/04/09 07:07:17;;;;;;;5.13;2.08;;;19.00;82.70;;;;;;4518299;26;20013;-51
2024/04/09 07:10:00;;;;;;;4.95;2.00;;;19.00;82.70;;;;;;4512832;26;20376;-47
2024/04/09 07:12:41;;;;;;;4.30;1.88;;;19.00;82.60;;;;;;4504685;26;20080;-48
2024/04/09 07:15:26;;;;;;;4.20;2.30;;;19.00;82.60;;;;;;4533562;25;20008;-48
2024/04/09 07:18:07;;;;;;;4.25;1.92;;;19.00;82.40;;;;;;4521147;26;20070;-48
2024/04/09 07:20:52;;;;;;;4.82;1.60;;;19.00;82.30;;;;;;4504847;26;20018;-49
2024/04/09 07:23:33;;;;;;;3.83;1.40;;;19.00;82.10;;;;;;4501367;26;20355;-51
2024/04/09 07:26:16;;;;;;;5.50;1.70;;;19.00;81.80;;;;;;4501485;26;20079;-50
2024/04/09 07:28:56;;;;;;;7.45;1.58;;;19.00;81.70;;;;;;4528755;26;20017;-47
2024/04/09 07:31:39;;;;;;;3.60;1.48;;;19.00;81.70;;;;;;4531269;26;20055;-47
2024/04/09 07:34:20;;;;;;;7.13;1.42;;;18.90;81.40;;;;;;4527787;26;20050;-47
2024/04/09 07:37:06;;;;;;;5.47;1.70;;;18.90;81.40;;;;;;4505492;26;20088;-46
2024/04/09 07:39:47;;;;;;;3.38;1.42;;;18.90;81.20;;;;;;4514719;26;20013;-46
2024/04/09 07:42:30;;;;;;;6.82;1.67;;;18.90;81.30;;;;;;4531177;26;20042;-47
2024/04/09 07:45:10;;;;;;;5.15;1.10;;;18.90;81.30;;;;;;4530486;26;20013;-49
2024/04/09 07:47:53;;;;;;;6.70;1.60;;;18.90;81.40;;;;;;4509062;26;20078;-47
2024/04/09 07:50:35;;;;;;;7.78;1.45;;;18.90;81.20;;;;;;4529493;26;20593;-45
2024/04/09 07:53:22;;;;;;;4.90;1.33;;;18.90;81.10;;;;;;4505188;26;20498;-45
2024/04/09 07:56:03;;;;;;;4.60;1.30;;;18.90;80.90;;;;;;4523352;26;20013;-47
2024/04/09 07:58:46;;;;;;;6.55;1.13;;;18.90;80.80;;;;;;4524948;26;20012;-49
2024/04/09 08:01:27;;;;;;;4.68;1.20;;;18.90;80.50;;;;;;4479311;26;20011;-48
2024/04/09 08:04:10;;;;;;;7.20;1.50;;;19.00;80.20;;;;;;4518579;26;20016;-48
2024/04/09 08:06:51;;;;;;;3.28;1.52;;;19.00;80.00;;;;;;4530654;26;20074;-47
2024/04/09 08:09:36;;;;;;;6.25;1.73;;;19.00;79.90;;;;;;4522222;26;20018;-50
2024/04/09 08:12:17;;;;;;;7.20;1.65;;;19.00;79.60;;;;;;4521164;26;20009;-48
2024/04/09 08:14:59;;;;;;;6.63;1.40;;;19.10;79.60;;;;;;4508309;26;20018;-48
2024/04/09 08:17:39;;;;;;;6.50;1.70;;;19.10;79.20;;;;;;4500889;26;20016;-48
2024/04/09 08:20:22;;;;;;;6.85;2.00;;;19.10;78.90;;;;;;4520617;26;20076;-48
2024/04/09 08:23:04;;;;;;;6.07;1.63;;;19.10;78.70;;;;;;4524744;26;20018;-47
2024/04/09 08:25:49;;;;;;;8.18;1.75;;;19.20;78.50;;;;;;4499861;26;20017;-49
2024/04/09 08:28:29;;;;;;;8.13;2.28;;;19.20;78.40;;;;;;4499861;26;20017;-48
2024/04/09 08:31:17;;;;;;;5.18;1.90;;;19.30;78.20;;;;;;4530659;26;20009;-49
2024/04/09 08:34:00;;;;;;;5.88;1.48;;;19.30;77.90;;;;;;4530532;26;20343;-49
2024/04/09 08:36:41;;;;;;;5.18;2.28;;;19.30;77.80;;;;;;4530667;26;20012;-45
2024/04/09 08:39:24;;;;;;;7.13;2.60;;;19.30;77.50;;;;;;4519080;26;20013;-51
2024/04/09 08:42:07;;;;;;;6.00;1.60;;;19.30;77.20;;;;;;4528555;26;20080;-50
2024/04/09 08:44:51;;;;;;;7.00;1.98;;;19.40;77.10;;;;;;4530308;26;20017;-50
2024/04/09 08:47:32;;;;;;;8.40;2.25;;;19.30;77.00;;;;;;4508475;26;20049;-48
2024/04/09 08:50:15;;;;;;;3.63;2.08;;;19.40;76.90;;;;;;4502335;26;20013;-49
2024/04/09 08:52:58;;;;;;;6.55;2.28;;;19.30;76.70;;;;;;4499719;26;20349;-49
2024/04/09 08:55:41;;;;;;;6.55;2.63;;;19.30;76.50;;;;;;4500131;26;20076;-48
2024/04/09 08:58:25;;;;;;;5.85;2.55;;;19.40;76.30;;;;;;4502507;26;20017;-47
2024/04/09 09:01:08;;;;;;;4.88;2.45;;;19.40;76.00;;;;;;4529983;26;20490;-48
2024/04/09 09:03:48;;;;;;;6.75;2.88;;;19.40;75.80;;;;;;4499638;26;20013;-50
2024/04/09 09:06:32;;;;;;;8.82;2.83;;;19.40;75.70;;;;;;4500221;26;20075;-41
2024/04/09 09:09:21;;;;;;;5.85;2.15;;;19.40;75.40;;;;;;4500411;26;20075;-41
2024/04/09 09:12:06;;;;;;;5.50;2.83;;;19.40;75.40;;;;;;4500130;26;20017;-40
2024/04/09 09:14:54;;;;;;;13.38;2.58;;;19.40;75.50;;;;;;4513315;26;20671;-39
2024/04/09 09:17:37;;;;;;;5.45;2.13;;;19.40;76.20;;;;;;4528925;26;20018;-40
2024/04/09 09:20:17;;;;;;;6.00;2.38;;;19.50;75.30;;;;;;4525829;26;20047;-41
2024/04/09 09:23:00;;;;;;;5.72;2.72;;;19.50;75.00;;;;;;4508194;26;20018;-41
2024/04/09 09:25:42;;;;;;;8.95;2.45;;;19.50;74.90;;;;;;4505449;26;20052;-40
2024/04/09 09:28:26;;;;;;;5.85;2.30;;;19.40;74.40;;;;;;4519290;26;20012;-40
2024/04/09 09:31:10;;;;;;;2.13;1.92;;;19.40;74.30;;;;;;4477222;26;20043;-41
2024/04/09 09:33:57;;;;;;;7.90;2.72;;;19.40;74.10;;;;;;4499355;26;20018;-40
2024/04/09 09:36:39;;;;;;;4.82;2.38;;;19.40;74.30;;;;;;4522686;26;20068;-40
2024/04/09 09:39:24;;;;;;;7.97;2.38;;;19.40;74.30;;;;;;4506058;26;20013;-47
2024/04/09 09:42:05;;;;;;;3.30;2.70;;;19.40;74.20;;;;;;4527979;26;20355;-47
2024/04/09 09:44:49;;;;;;;3.03;2.10;;;19.40;74.10;;;;;;4529783;26;20017;-47
2024/04/09 09:47:32;;;;;;;4.53;2.20;;;19.40;74.00;;;;;;4499825;26;20014;-52
2024/04/09 09:50:16;;;;;;;3.70;2.20;;;19.50;73.90;;;;;;4525617;26;20013;-49
2024/04/09 09:52:57;;;;;;;5.70;2.70;;;19.50;73.50;;;;;;4519351;26;20055;-47
2024/04/09 09:55:42;;;;;;;4.53;2.40;;;19.50;73.30;;;;;;4517705;26;20112;-47
2024/04/09 09:58:28;;;;;;;3.60;2.65;;;19.50;73.00;;;;;;4502865;26;20267;-49
2024/04/09 10:01:10;;;;;;;5.80;3.00;;;19.50;72.80;;;;;;4502649;26;20017;-49
2024/04/09 10:03:56;;;;;;;5.38;2.65;;;19.50;72.80;;;;;;4518232;26;20012;-50
2024/04/09 10:06:40;;;;;;;4.57;2.83;;;19.40;72.80;;;;;;4532756;26;20569;-48
2024/04/09 10:09:39;;;;;;;5.07;2.45;;;19.40;73.80;;;;;;4532334;26;20074;-49
2024/04/09 10:12:20;;;;;;;5.97;1.98;;;19.40;72.70;;;;;;4526516;26;20013;-47
2024/04/09 10:15:05;;;;;;;3.65;2.22;;;19.40;72.60;;;;;;4505488;26;20496;-47
2024/04/09 10:17:46;;;;;;;2.67;2.30;;;19.40;72.20;;;;;;4536811;25;20349;-47
2024/04/09 10:20:37;;;;;;;2.72;1.70;;;19.40;71.80;;;;;;4540358;25;20677;-47
2024/04/09 10:23:19;;;;;;;3.05;2.05;;;19.40;71.50;;;;;;4563908;25;20012;-50
2024/04/09 10:26:02;;;;;;;2.20;2.00;;;19.40;71.50;;;;;;4540749;25;20054;-48
2024/04/09 10:28:43;;;;;;;1.13;1.10;;;19.50;71.40;;;;;;4553409;25;20009;-49
2024/04/09 10:31:31;;;;;;;1.70;1.52;;;19.50;70.70;;;;;;4562914;25;20456;-52
2024/04/09 10:34:21;;;;;;;3.70;2.05;;;19.50;69.90;;;;;;4563378;25;20016;-49
2024/04/09 10:37:08;;;;;;;1.85;1.40;;;19.60;69.10;;;;;;4562446;25;20077;-50
2024/04/09 10:39:48;;;;;;;2.05;1.30;;;19.60;69.20;;;;;;4548206;25;20013;-49
2024/04/09 10:42:31;;;;;;;3.65;1.40;;;19.60;67.80;;;;;;4542689;25;20082;-48
2024/04/09 10:45:11;;;;;;;1.33;1.20;;;19.60;67.20;;;;;;4562450;25;20016;-51
2024/04/09 10:47:54;;;;;;;2.15;1.33;;;19.60;66.60;;;;;;4542115;25;20474;-51
2024/04/09 10:50:35;;;;;;;2.35;1.30;;;19.70;66.00;;;;;;4532413;26;20497;-49
2024/04/09 10:53:21;;;;;;;3.25;1.75;;;19.70;65.60;;;;;;4532855;26;20099;-48
2024/04/09 10:56:02;;;;;;;1.95;1.23;;;19.70;65.20;;;;;;4532649;25;20329;-48
2024/04/09 10:58:45;;;;;;;3.75;1.02;;;19.70;65.00;;;;;;4540889;25;20073;-49
2024/04/09 11:01:25;;;;;;;3.20;1.23;;;19.70;65.00;;;;;;4561387;25;20050;-47
2024/04/09 11:04:08;;;;;;;1.65;0.93;;;19.70;64.70;;;;;;4532071;26;20021;-48
2024/04/09 11:06:49;;;;;;;2.72;1.80;;;19.70;64.00;;;;;;4532347;26;20402;-47
2024/04/09 11:09:35;;;;;;;1.83;0.85;;;19.70;63.40;;;;;;4530979;26;20448;-48
2024/04/09 11:12:16;;;;;;;2.03;1.17;;;19.70;63.00;;;;;;4532775;26;20082;-49
2024/04/09 11:15:00;;;;;;;1.85;0.93;;;19.70;62.60;;;;;;4531519;25;20050;-49
2024/04/09 11:17:42;;;;;;;1.02;1.02;;;19.70;62.20;;;;;;4511929;26;20094;-48
2024/04/09 11:20:25;;;;;;;1.02;0.82;;;19.60;62.00;;;;;;4510426;26;20014;-49
2024/04/09 11:23:07;;;;;;;3.95;0.95;;;19.70;61.80;;;;;;4501449;26;20357;-47
2024/04/09 11:25:53;;;;;;;1.55;1.10;;;19.60;61.30;;;;;;4501654;26;20010;-48
2024/04/09 11:28:33;;;;;;;2.65;1.10;;;19.60;60.90;;;;;;4501642;26;20079;-49
2024/04/09 11:31:16;;;;;;;1.05;1.00;;;19.60;60.70;;;;;;4501716;26;20108;-50
2024/04/09 11:33:59;;;;;;;1.38;0.63;;;19.70;60.70;;;;;;4500699;26;20018;-48
2024/04/09 11:36:42;;;;;;;1.10;1.10;;;19.60;60.20;;;;;;4518213;26;20078;-49
2024/04/09 11:39:23;;;;;;;2.05;1.05;;;19.70;59.90;;;;;;4501616;26;20018;-47
2024/04/09 11:42:09;;;;;;;4.68;1.10;;;19.70;59.40;;;;;;4501637;26;20087;-51
2024/04/09 11:44:58;;;;;;;1.30;1.20;;;19.70;59.00;;;;;;4501590;26;20076;-50
2024/04/09 11:47:41;;;;;;;2.40;1.50;;;19.70;58.70;;;;;;4511552;26;20078;-48
2024/04/09 11:50:23;;;;;;;3.78;1.27;;;19.70;59.20;;;;;;4522361;26;20014;-51
2024/04/09 11:53:05;;;;;;;1.27;1.02;;;19.70;58.40;;;;;;4508947;26;20345;-48
2024/04/09 11:55:46;;;;;;;3.50;1.13;;;19.70;58.30;;;;;;4531367;26;20873;-49
2024/04/09 11:58:31;;;;;;;1.40;1.08;;;19.60;58.30;;;;;;4530774;26;20399;-49
2024/04/09 12:01:12;;;;;;;2.53;1.10;;;19.60;58.20;;;;;;4531181;26;20369;-48
2024/04/09 12:03:55;;;;;;;2.03;1.00;;;19.60;58.20;;;;;;4531074;26;20522;-48
2024/04/09 12:06:35;;;;;;;3.90;1.95;;;19.60;58.20;;;;;;4530932;26;20017;-48
2024/04/09 12:09:18;;;;;;;4.65;0.90;;;19.60;58.30;;;;;;4500616;26;20079;-51
2024/04/09 12:11:58;;;;;;;4.70;1.10;;;19.60;58.30;;;;;;4500895;26;20043;-51
2024/04/09 12:14:44;;;;;;;2.65;1.25;;;19.50;58.30;;;;;;4500385;26;20079;-49
2024/04/09 12:17:24;;;;;;;3.78;0.80;;;19.50;58.50;;;;;;4511278;26;20011;-50
2024/04/09 12:20:09;;;;;;;4.68;1.60;;;19.50;58.90;;;;;;4530490;26;20008;-49
2024/04/09 12:22:49;;;;;;;1.00;0.80;;;19.50;59.20;;;;;;4500447;26;20021;-49
2024/04/09 12:25:32;;;;;;;2.45;0.70;;;19.50;58.90;;;;;;4500093;26;20017;-49
2024/04/09 12:28:12;;;;;;;1.35;0.80;;;19.50;58.70;;;;;;4525838;26;20365;-49
2024/04/09 12:30:58;;;;;;;3.92;0.73;;;19.50;58.50;;;;;;4531154;26;20337;-51
2024/04/09 12:33:38;;;;;;;1.15;0.60;;;19.50;58.40;;;;;;4530803;26;20013;-47
2024/04/09 12:36:21;;;;;;;1.27;0.47;;;19.50;58.30;;;;;;4530373;26;20078;-48
2024/04/09 12:39:03;;;;;;;2.22;0.80;;;19.50;58.10;;;;;;4530603;26;20012;-51
2024/04/09 12:41:46;;;;;;;1.88;0.80;;;19.50;58.00;;;;;;4522090;26;20035;-40
2024/04/09 12:44:26;;;;;;;5.82;1.10;;;19.50;58.00;;;;;;4500762;26;20035;-40
2024/04/09 12:47:12;;;;;;;1.73;1.05;;;19.50;57.90;;;;;;4517377;26;20016;-50
2024/04/09 12:49:52;;;;;;;1.75;0.60;;;19.40;57.70;;;;;;4499738;26;20026;-49
2024/04/09 12:52:36;;;;;;;1.05;0.50;;;19.40;57.70;;;;;;4499760;26;20013;-49
2024/04/09 12:55:16;;;;;;;1.17;0.45;;;19.40;57.50;;;;;;4504405;26;20043;-48
2024/04/09 12:58:00;;;;;;;2.60;0.50;;;19.40;57.60;;;;;;4509596;26;20087;-51
2024/04/09 13:00:40;;;;;;;2.97;0.70;;;19.30;57.60;;;;;;4506223;26;20495;-49
2024/04/09 13:03:42;;;;;;;1.75;0.38;;;19.30;57.40;;;;;;4529260;26;20017;-47
2024/04/09 13:06:22;;;;;;;1.10;0.50;;;19.30;57.20;;;;;;4530257;26;20004;-41
2024/04/09 13:09:07;;;;;;;0.38;0.38;;;19.20;57.00;;;;;;4527512;26;20354;-40
2024/04/09 13:11:50;;;;;;;4.20;0.85;;;19.20;56.70;;;;;;4527606;26;20014;-40
2024/04/09 13:14:30;;;;;;;3.00;0.68;;;19.20;56.50;;;;;;4503741;26;20047;-40
2024/04/09 13:17:13;;;;;;;1.25;0.60;;;19.20;56.40;;;;;;4503856;26;20093;-40
2024/04/09 13:19:56;;;;;;;4.30;0.88;;;19.20;56.40;;;;;;4500088;26;20013;-40
2024/04/09 13:22:39;;;;;;;1.30;0.73;;;19.10;56.20;;;;;;4522222;26;20013;-40
2024/04/09 13:25:20;;;;;;;1.52;0.80;;;19.10;56.10;;;;;;4499615;26;20014;-40
2024/04/09 13:28:03;;;;;;;1.35;0.60;;;19.10;56.20;;;;;;4498758;26;20017;-40
2024/04/09 13:30:44;;;;;;;4.10;0.90;;;19.10;56.30;;;;;;4514541;26;20444;-41
2024/04/09 13:33:26;;;;;;;0.85;0.50;;;19.10;56.30;;;;;;4501572;26;20010;-40
2024/04/09 13:36:12;;;;;;;1.02;0.70;;;19.00;56.30;;;;;;4529266;26;20329;-40
2024/04/09 13:38:52;;;;;;;2.38;0.70;;;19.00;56.30;;;;;;4529429;26;20386;-40
2024/04/09 13:41:35;;;;;;;1.45;0.80;;;19.00;56.20;;;;;;4530123;26;20080;-40
2024/04/09 13:44:16;;;;;;;2.58;0.55;;;19.00;56.20;;;;;;4499464;26;20038;-40
2024/04/09 13:46:58;;;;;;;1.35;0.63;;;19.00;56.20;;;;;;4499393;26;20135;-49
2024/04/09 13:49:39;;;;;;;1.35;0.70;;;19.00;56.20;;;;;;4504449;26;20088;-48
2024/04/09 13:52:24;;;;;;;2.42;0.82;;;18.90;56.10;;;;;;4510277;26;20359;-48
2024/04/09 13:55:06;;;;;;;1.35;0.52;;;19.00;56.30;;;;;;4529574;26;20017;-52
2024/04/09 13:57:48;;;;;;;2.60;0.70;;;18.90;56.10;;;;;;4529646;26;20020;-52
2024/04/09 14:00:29;;;;;;;3.45;0.60;;;18.90;55.90;;;;;;4529188;26;20021;-52
2024/04/09 14:03:12;;;;;;;1.48;0.65;;;18.90;55.80;;;;;;4528496;26;20021;-48